Poling, Indiana
Current Conditions -  °F | °C
As of 5:15 PM on Sunday 23 Nov 2014 (Local Time) from KVES Reporting Station
Broken Clouds Broken Clouds  
Wind Chill: 54°   Ceiling: 9000
Heat Index: 54°   Visibility: 10mi
Dew Point: 46°   Wind: 12mph
Humidity: 77%   Direction: 140°SE
Pressure: 29.54"   Gusts: NA
Location:  40.5419°N, 84.8968°W
Report Text: KVES 232215Z AUTO 14010KT 10SM SCT047 SCT060 BKN090 12/08 A2954 RMK AO2
Loading
Personal Weather Stations






























Interactive Weather Map New forecast layout! Learn more

10-Day Weather Forecast

Advertisements
Track Severe Weather on mobile